11 Max
6 km/h
3 Mini

LFMY 230930Z AUTO 06003KT 350V120 CAVOK 28/15 Q1019 BECMG 22010KT

TAF LFMY 230800Z 2309/2409 22010KT CAVOK BECMG 2318/2320 VRB02KT